Terminal Aerodrome Forecast
Issued by NWS Louisville, KY

Home | Current Version | Previous Version | Text Only | Print | Product List | Glossary On
Versions: 1 2 3 4 5 6 7 8 9 10 11 12 13 14 15 16 17 18
000
FTUS43 KLMK 300539
TAFSDF
TAF
KSDF 300539Z 3006/0112 09007KT P6SM VCSH BKN070 OVC090
     FM301000 08008KT P6SM BKN050 OVC090
     FM301500 12008KT P6SM -SHRA VCTS BKN040CB
     FM302000 16012G22KT P6SM -SHRA VCTS BKN022CB
     FM010000 17010KT P6SM -SHRA OVC040
     FM010600 21006KT P6SM SCT025 BKN040=

USA.gov is the U.S. government's official web portal to all federal, state and local government web resources and services.